createdAt,value
2022-11-24T00:04:27.416Z,1.74
2022-11-24T00:14:04.133Z,1.91
2022-11-24T00:23:40.887Z,1.73
2022-11-24T00:33:17.589Z,1.34
2022-11-24T00:42:54.626Z,1.64
2022-11-24T00:52:31.365Z,1.75
2022-11-24T01:02:08.464Z,1.47
2022-11-24T01:11:44.844Z,1.62
2022-11-24T01:21:21.606Z,1.46
2022-11-24T01:30:58.366Z,1.52
2022-11-24T01:40:35.124Z,1.78
2022-11-24T01:50:12.285Z,1.94
2022-11-24T01:59:49.299Z,2.09
2022-11-24T02:09:26.491Z,2.26
2022-11-24T02:19:03.152Z,2.2
2022-11-24T02:28:39.965Z,2.19
2022-11-24T02:38:17.025Z,2.28
2022-11-24T02:47:53.791Z,2.32
2022-11-24T02:57:30.270Z,2.39
2022-11-24T03:07:07.025Z,2.47
2022-11-24T03:16:43.774Z,2.52
2022-11-24T03:26:20.452Z,2.49
2022-11-24T03:35:57.239Z,2.42
2022-11-24T03:45:47.929Z,2.32
2022-11-24T03:55:10.378Z,2.18
2022-11-24T04:04:49.686Z,2.3
2022-11-24T04:14:24.040Z,2.29
2022-11-24T04:24:00.673Z,2.42
2022-11-24T04:33:37.589Z,2.39
2022-11-24T04:43:14.622Z,2.26
2022-11-24T04:52:51.645Z,2.47
2022-11-24T05:02:28.502Z,2.74
2022-11-24T05:12:05.318Z,2.67
2022-11-24T05:21:41.944Z,2.7
2022-11-24T05:31:19.130Z,2.81
2022-11-24T05:40:56.169Z,2.79
2022-11-24T05:50:32.774Z,2.68
2022-11-24T06:00:09.327Z,2.61
2022-11-24T06:09:45.864Z,2.33
2022-11-24T06:19:22.565Z,2.58
2022-11-24T06:28:59.253Z,2.71
2022-11-24T06:38:36.247Z,2.78
2022-11-24T06:48:13.124Z,2.6
2022-11-24T06:57:49.875Z,2.5
2022-11-24T07:07:26.912Z,2.62
2022-11-24T07:17:03.637Z,2.68
2022-11-24T07:26:42.324Z,2.86
2022-11-24T07:36:18.636Z,3.11
2022-11-24T07:45:55.796Z,3.17
2022-11-24T07:55:33.657Z,3.23
2022-11-24T08:05:11.458Z,3.29
2022-11-24T08:14:48.568Z,3.6
2022-11-24T08:24:26.301Z,3.98
2022-11-24T08:34:03.935Z,4.57
2022-11-24T08:43:40.943Z,4.7
2022-11-24T08:53:19.384Z,5.07
2022-11-24T09:02:58.497Z,4.96
2022-11-24T09:12:33.048Z,5.37
2022-11-24T09:22:10.957Z,5.58
2022-11-24T09:31:48.666Z,5.61
2022-11-24T09:41:25.984Z,5.48
2022-11-24T09:51:01.949Z,5.5
2022-11-24T10:00:39.145Z,5.94
2022-11-24T10:10:24.420Z,6.31
2022-11-24T10:19:56.812Z,6.54
2022-11-24T10:29:34.583Z,6.74
2022-11-24T10:39:12.959Z,7.19
2022-11-24T10:48:50.315Z,7.95
2022-11-24T10:58:26.495Z,8.11
2022-11-24T11:08:05.700Z,8.52
2022-11-24T11:17:41.192Z,8.68
2022-11-24T11:27:17.992Z,8.63
2022-11-24T11:36:55.659Z,8.83
2022-11-24T11:46:32.938Z,8.69
2022-11-24T11:56:09.730Z,8.45
2022-11-24T12:05:47.731Z,8.61
2022-11-24T12:15:27.817Z,9.57
2022-11-24T12:25:06.591Z,9.98
2022-11-24T12:34:44.232Z,10.19
2022-11-24T12:44:21.720Z,10.09
2022-11-24T12:53:56.847Z,9.87
2022-11-24T13:03:32.474Z,9.53
2022-11-24T13:13:08.369Z,9.34
2022-11-24T13:22:45.217Z,9.33
2022-11-24T13:32:22.388Z,9.24
2022-11-24T13:41:59.226Z,9.12
2022-11-24T13:51:37.166Z,9.19
2022-11-24T14:01:13.887Z,9.1
2022-11-24T14:10:49.683Z,8.95
2022-11-24T14:20:26.101Z,8.78
2022-11-24T14:30:02.683Z,8.64
2022-11-24T14:39:39.796Z,8.67
2022-11-24T14:49:16.849Z,8.5
2022-11-24T14:58:53.633Z,8.39
2022-11-24T15:08:30.294Z,8.17
2022-11-24T15:18:07.202Z,8.13
2022-11-24T15:27:44.217Z,7.96
2022-11-24T15:37:21.238Z,7.9
2022-11-24T15:46:57.958Z,7.74
2022-11-24T15:56:34.490Z,7.23
2022-11-24T16:06:10.875Z,6.8
2022-11-24T16:15:47.273Z,6.47
2022-11-24T16:25:23.758Z,6.13
2022-11-24T16:35:00.360Z,6.02
2022-11-24T16:44:37.386Z,5.93
2022-11-24T16:54:13.920Z,5.84
2022-11-24T17:03:50.932Z,5.78
2022-11-24T17:13:28.051Z,5.83
2022-11-24T17:23:05.115Z,5.86
2022-11-24T17:32:41.776Z,5.76
2022-11-24T17:42:18.776Z,5.97
2022-11-24T17:51:55.862Z,5.95
2022-11-24T18:01:32.838Z,5.87
2022-11-24T18:11:09.614Z,5.79
2022-11-24T18:20:46.479Z,5.93
2022-11-24T18:30:23.472Z,5.86
2022-11-24T18:40:00.189Z,5.8
2022-11-24T18:49:37.351Z,6.05
2022-11-24T18:59:14.201Z,6.1
2022-11-24T19:08:51.057Z,6.08
2022-11-24T19:18:27.832Z,5.92
2022-11-24T19:28:04.517Z,5.71
2022-11-24T19:37:40.934Z,5.29
2022-11-24T19:47:17.165Z,5.37
2022-11-24T19:56:53.911Z,5.66
2022-11-24T20:06:30.791Z,5.6
2022-11-24T20:16:07.681Z,5.42
2022-11-24T20:25:44.434Z,5.24
2022-11-24T20:35:21.465Z,5.01
2022-11-24T20:44:58.186Z,5.22
2022-11-24T20:54:35.336Z,5.12
2022-11-24T21:04:12.318Z,5.18
2022-11-24T21:13:49.227Z,5.13
2022-11-24T21:23:26.082Z,5.21
2022-11-24T21:33:03.004Z,5.19
2022-11-24T21:42:39.761Z,5.21
2022-11-24T21:52:16.070Z,5.2
2022-11-24T22:01:52.950Z,5.12
2022-11-24T22:11:30.047Z,5.34
2022-11-24T22:21:06.937Z,5.24
2022-11-24T22:30:42.827Z,4.93
2022-11-24T22:40:19.204Z,4.53
2022-11-24T22:49:55.663Z,4.51
2022-11-24T22:59:32.038Z,4.09
2022-11-24T23:09:08.461Z,3.64
2022-11-24T23:18:47.031Z,3.37
2022-11-24T23:28:21.205Z,3.03
2022-11-24T23:38:07.283Z,2.96
2022-11-24T23:47:33.743Z,2.74
2022-11-24T23:57:10.322Z,2.35
